Time;durP1;ratioP1;P1;durP2;ratioP2;P2;SDS_P1;SDS_P2;PMS_P1;PMS_P2;Temp;Humidity;BMP_temperature;BMP_pressure;BME280_temperature;BME280_humidity;BME280_pressure;Samples;Min_cycle;Max_cycle;Signal;HPM_P1;HPM_P2
2021/11/14 00:01:14;;;;;;;183.20;55.30;;;9.90;99.90;;;;;;5063859;28;20032;-74
2021/11/14 00:03:40;;;;;;;224.95;60.78;;;9.90;99.90;;;;;;5069296;28;20105;-73
2021/11/14 00:06:07;;;;;;;166.70;55.22;;;9.90;99.90;;;;;;5075981;28;20048;-75
2021/11/14 00:08:37;;;;;;;183.85;54.53;;;9.90;99.90;;;;;;5055808;28;20052;-74
2021/11/14 00:11:09;;;;;;;128.98;52.42;;;9.90;99.90;;;;;;5051521;28;20052;-73
2021/11/14 00:13:39;;;;;;;164.45;53.15;;;9.90;99.90;;;;;;5068341;28;20084;-73
2021/11/14 00:16:07;;;;;;;180.70;57.70;;;9.90;99.90;;;;;;5039463;28;20056;-73
2021/11/14 00:18:34;;;;;;;141.63;52.28;;;9.90;99.90;;;;;;5052386;28;20040;-74
2021/11/14 00:21:00;;;;;;;111.63;50.85;;;9.90;99.90;;;;;;5079334;28;20045;-73
2021/11/14 00:23:26;;;;;;;144.25;53.42;;;9.90;99.90;;;;;;5066922;28;20044;-74
2021/11/14 00:25:52;;;;;;;159.27;57.22;;;9.90;99.90;;;;;;5053767;28;20029;-74
2021/11/14 00:28:18;;;;;;;129.63;51.55;;;9.90;99.90;;;;;;5049833;28;20549;-74
2021/11/14 00:30:44;;;;;;;121.00;52.55;;;9.90;99.90;;;;;;5064469;28;20095;-74
2021/11/14 00:33:11;;;;;;;159.85;58.03;;;9.90;99.90;;;;;;5038432;28;20085;-75
2021/11/14 00:35:39;;;;;;;140.20;55.72;;;10.00;99.90;;;;;;5049010;28;20496;-74
2021/11/14 00:38:06;;;;;;;149.50;57.30;;;9.90;99.90;;;;;;5050515;28;20725;-75
2021/11/14 00:40:34;;;;;;;131.88;55.28;;;9.90;99.90;;;;;;5070839;28;20126;-74
2021/11/14 00:43:03;;;;;;;145.77;56.00;;;10.00;99.90;;;;;;5073514;28;20076;-75
2021/11/14 00:45:32;;;;;;;150.02;57.17;;;9.90;99.90;;;;;;5071268;28;20068;-74
2021/11/14 00:47:59;;;;;;;173.98;61.75;;;9.90;99.90;;;;;;5069488;28;20066;-75
2021/11/14 00:50:25;;;;;;;136.85;54.72;;;9.90;99.90;;;;;;5069665;28;20048;-74
2021/11/14 00:52:51;;;;;;;134.32;55.22;;;9.90;99.90;;;;;;5050801;28;20055;-74
2021/11/14 00:55:20;;;;;;;155.07;54.83;;;9.90;99.90;;;;;;5035797;28;20330;-75
2021/11/14 00:57:46;;;;;;;135.85;54.53;;;9.90;99.90;;;;;;5070455;28;20674;-75
2021/11/14 01:00:19;;;;;;;131.63;55.10;;;9.90;99.90;;;;;;5055995;28;20039;-74
2021/11/14 01:02:45;;;;;;;142.60;55.67;;;9.90;99.90;;;;;;5063318;28;20051;-75
2021/11/14 01:05:16;;;;;;;166.32;57.45;;;9.90;99.90;;;;;;5051677;28;20056;-74
2021/11/14 01:07:42;;;;;;;141.13;55.85;;;9.90;99.90;;;;;;5062289;28;20043;-74
2021/11/14 01:10:13;;;;;;;132.68;54.47;;;9.90;99.90;;;;;;5058615;28;20101;-74
2021/11/14 01:12:38;;;;;;;;;;;9.90;99.90;;;;;;5063936;28;20533;-75
2021/11/14 01:15:06;;;;;;;147.63;55.40;;;9.90;99.90;;;;;;5073026;28;19927;-74
2021/11/14 01:17:32;;;;;;;141.55;55.05;;;9.90;99.90;;;;;;5058231;28;20048;-75
2021/11/14 01:20:02;;;;;;;124.07;52.40;;;9.90;99.90;;;;;;5060593;28;20555;-75
2021/11/14 01:22:28;;;;;;;125.05;52.72;;;10.00;99.90;;;;;;5044501;28;20086;-74
2021/11/14 01:24:54;;;;;;;113.75;49.15;;;10.00;99.90;;;;;;5038932;28;20056;-74
2021/11/14 01:27:21;;;;;;;104.30;46.90;;;9.90;99.90;;;;;;5074333;28;20040;-74
2021/11/14 01:29:47;;;;;;;121.50;49.90;;;10.00;99.90;;;;;;5085280;28;20101;-75
2021/11/14 01:32:13;;;;;;;115.05;50.85;;;10.00;99.90;;;;;;5068630;28;20060;-74
2021/11/14 01:34:39;;;;;;;122.97;51.45;;;10.00;99.90;;;;;;5035814;28;20040;-74
2021/11/14 01:37:04;;;;;;;127.45;51.90;;;9.90;99.90;;;;;;5052620;28;20139;-75
2021/11/14 01:39:32;;;;;;;109.05;50.03;;;9.90;99.90;;;;;;5069855;28;20555;-74
2021/11/14 01:42:01;;;;;;;123.45;49.33;;;10.00;99.90;;;;;;5070305;28;20041;-74
2021/11/14 01:44:27;;;;;;;100.10;46.30;;;9.90;99.90;;;;;;5039044;28;20059;-76
2021/11/14 01:46:53;;;;;;;98.18;46.47;;;9.90;99.90;;;;;;5088504;28;20379;-74
2021/11/14 01:49:19;;;;;;;97.22;45.28;;;9.90;99.90;;;;;;5069929;28;20119;-74
2021/11/14 01:51:45;;;;;;;101.13;47.38;;;9.90;99.90;;;;;;5037173;28;20127;-75
2021/11/14 01:54:11;;;;;;;97.85;45.60;;;9.90;99.90;;;;;;5082933;28;20051;-75
2021/11/14 01:56:37;;;;;;;97.88;44.50;;;9.90;99.90;;;;;;5072507;28;20039;-74
2021/11/14 01:59:04;;;;;;;101.45;45.47;;;9.90;99.90;;;;;;5089786;28;20129;-74
2021/11/14 02:01:34;;;;;;;89.57;45.13;;;9.90;99.90;;;;;;5088546;28;20094;-75
2021/11/14 02:04:05;;;;;;;96.78;42.88;;;9.90;99.90;;;;;;5089707;28;20043;-74
2021/11/14 02:06:32;;;;;;;94.50;43.85;;;9.90;99.90;;;;;;5073538;28;20135;-74
2021/11/14 02:08:58;;;;;;;93.82;44.05;;;9.90;99.90;;;;;;5052698;28;20125;-74
2021/11/14 02:11:26;;;;;;;88.20;44.47;;;9.90;99.90;;;;;;5051626;28;20618;-74
2021/11/14 02:13:52;;;;;;;95.20;45.22;;;9.90;99.90;;;;;;5049233;28;20036;-75
2021/11/14 02:16:21;;;;;;;84.57;41.47;;;9.90;99.90;;;;;;5071969;28;20067;-74
2021/11/14 02:18:47;;;;;;;85.75;42.75;;;9.90;99.90;;;;;;5088874;28;20506;-74
2021/11/14 02:21:13;;;;;;;94.72;44.22;;;9.90;99.90;;;;;;5068160;28;20044;-74
2021/11/14 02:23:39;;;;;;;86.10;42.92;;;9.90;99.90;;;;;;5052107;28;21035;-74
2021/11/14 02:26:05;;;;;;;80.13;41.05;;;9.90;99.90;;;;;;5068160;28;20182;-74
2021/11/14 02:28:32;;;;;;;84.38;41.28;;;9.90;99.90;;;;;;5068072;28;20067;-75
2021/11/14 02:31:01;;;;;;;82.28;41.63;;;9.90;99.90;;;;;;5051745;28;20054;-74
2021/11/14 02:33:27;;;;;;;84.10;41.78;;;9.90;99.90;;;;;;5051815;28;20033;-75
2021/11/14 02:36:00;;;;;;;83.35;41.45;;;9.90;99.90;;;;;;5035343;28;20044;-74
2021/11/14 02:38:27;;;;;;;82.72;41.50;;;9.90;99.90;;;;;;5051384;28;20048;-75
2021/11/14 02:40:54;;;;;;;79.70;42.53;;;9.90;99.90;;;;;;5055678;28;20071;-73
2021/11/14 02:43:20;;;;;;;86.63;43.85;;;9.90;99.90;;;;;;5051018;28;20123;-74
2021/11/14 02:45:46;;;;;;;75.65;43.42;;;9.90;99.90;;;;;;5051471;28;20041;-75
2021/11/14 02:48:13;;;;;;;77.90;41.00;;;9.90;99.90;;;;;;5051124;28;20043;-76
2021/11/14 02:50:41;;;;;;;80.85;43.08;;;9.90;99.90;;;;;;5054166;28;20052;-75
2021/11/14 02:53:09;;;;;;;70.88;41.70;;;9.90;99.90;;;;;;5068182;28;20083;-76
2021/11/14 02:55:35;;;;;;;73.90;42.08;;;9.90;99.90;;;;;;5051013;28;20511;-75
2021/11/14 02:58:02;;;;;;;71.65;41.95;;;9.90;99.90;;;;;;5068384;28;20410;-75
2021/11/14 03:00:32;;;;;;;68.80;42.30;;;10.00;99.90;;;;;;5052132;28;20048;-75
2021/11/14 03:03:01;;;;;;;;;;;9.90;99.90;;;;;;5071148;28;20055;-76
2021/11/14 03:05:27;;;;;;;70.55;41.13;;;9.90;99.90;;;;;;5078954;28;20386;-72
2021/11/14 03:07:54;;;;;;;66.90;39.53;;;9.90;99.90;;;;;;5045444;28;20052;-72
2021/11/14 03:10:24;;;;;;;72.30;41.30;;;9.80;99.90;;;;;;5077322;28;20036;-73
2021/11/14 03:13:20;;;;;;;68.30;39.75;;;9.80;99.90;;;;;;5076930;28;20044;-72
2021/11/14 03:15:50;;;;;;;68.38;40.00;;;9.80;99.90;;;;;;5056844;28;20068;-76
2021/11/14 03:18:16;;;;;;;66.75;39.92;;;9.80;99.90;;;;;;5059601;28;20054;-75
2021/11/14 03:20:44;;;;;;;70.85;39.78;;;9.80;99.90;;;;;;5067840;28;20048;-75
2021/11/14 03:23:11;;;;;;;68.05;41.28;;;9.70;99.90;;;;;;5071527;28;20059;-75
2021/11/14 03:25:38;;;;;;;72.25;39.90;;;9.80;99.90;;;;;;5073708;28;20045;-76
2021/11/14 03:28:05;;;;;;;77.55;39.53;;;9.70;99.90;;;;;;5065436;28;20044;-75
2021/11/14 03:30:33;;;;;;;78.97;42.72;;;9.70;99.90;;;;;;5072209;28;20621;-75
2021/11/14 03:33:08;;;;;;;78.07;41.88;;;9.70;99.90;;;;;;5058676;28;20540;-75
2021/11/14 03:35:53;;;;;;;77.68;40.35;;;9.70;99.90;;;;;;5054521;28;20492;-75
2021/11/14 03:38:22;;;;;;;80.10;42.22;;;9.70;99.90;;;;;;5067038;28;20044;-75
2021/11/14 03:40:49;;;;;;;83.75;42.67;;;9.70;99.90;;;;;;5053274;28;20044;-76
2021/11/14 03:43:15;;;;;;;78.43;41.67;;;9.70;99.90;;;;;;5034028;28;20913;-75
2021/11/14 03:45:41;;;;;;;80.13;42.78;;;9.70;99.90;;;;;;5057656;28;20106;-75
2021/11/14 03:48:08;;;;;;;84.18;44.60;;;9.70;99.90;;;;;;5058809;28;20506;-75
2021/11/14 03:50:34;;;;;;;86.72;44.40;;;9.70;99.90;;;;;;5070092;28;20617;-75
2021/11/14 03:53:05;;;;;;;88.63;43.85;;;9.60;99.90;;;;;;5071678;28;20514;-74
2021/11/14 03:55:31;;;;;;;88.68;44.33;;;9.60;99.90;;;;;;5054434;28;20114;-76
2021/11/14 03:57:57;;;;;;;85.20;44.05;;;9.60;99.90;;;;;;5066702;28;20082;-75
2021/11/14 04:00:33;;;;;;;94.50;45.03;;;9.60;99.90;;;;;;5056745;28;20639;-76
2021/11/14 04:03:04;;;;;;;98.40;44.70;;;9.60;99.90;;;;;;5070356;28;20064;-75
2021/11/14 04:05:31;;;;;;;92.85;44.58;;;9.60;99.90;;;;;;5049524;28;20052;-75
2021/11/14 04:07:58;;;;;;;101.47;44.83;;;9.60;99.90;;;;;;5051305;28;20056;-72
2021/11/14 04:10:25;;;;;;;98.47;43.78;;;9.60;99.90;;;;;;5033690;28;20556;-71
2021/11/14 04:12:51;;;;;;;111.63;45.83;;;9.60;99.90;;;;;;5051649;28;20048;-71
2021/11/14 04:15:17;;;;;;;117.80;47.53;;;9.60;99.90;;;;;;5053847;28;20449;-76
2021/11/14 04:17:44;;;;;;;120.90;46.78;;;9.50;99.90;;;;;;5055031;28;20075;-75
2021/11/14 04:20:11;;;;;;;130.93;47.55;;;9.50;99.90;;;;;;5066315;28;20040;-75
2021/11/14 04:22:38;;;;;;;124.15;45.67;;;9.40;99.90;;;;;;5059203;28;20717;-75
2021/11/14 04:25:07;;;;;;;129.10;47.30;;;9.50;99.90;;;;;;5065994;28;20518;-75
2021/11/14 04:27:33;;;;;;;152.65;51.10;;;9.50;99.90;;;;;;5084790;28;20479;-76
2021/11/14 04:29:59;;;;;;;139.48;49.75;;;9.50;99.90;;;;;;5053622;28;20538;-75
2021/11/14 04:32:25;;;;;;;130.02;48.63;;;9.40;99.90;;;;;;5074954;28;20043;-74
2021/11/14 04:34:51;;;;;;;143.48;51.33;;;9.40;99.90;;;;;;5051371;28;20127;-75
2021/11/14 04:37:17;;;;;;;144.25;49.65;;;9.40;99.90;;;;;;5048222;28;20052;-74
2021/11/14 04:39:43;;;;;;;155.18;50.47;;;9.40;99.90;;;;;;5046651;28;20153;-75
2021/11/14 04:42:08;;;;;;;138.98;48.85;;;9.40;99.90;;;;;;5075453;28;20116;-75
2021/11/14 04:44:35;;;;;;;145.68;51.42;;;9.40;99.90;;;;;;5082941;28;20456;-75
2021/11/14 04:47:03;;;;;;;134.40;51.55;;;9.40;99.90;;;;;;5084463;28;20637;-75
2021/11/14 04:49:29;;;;;;;132.55;48.75;;;9.40;99.90;;;;;;5078234;28;20525;-75
2021/11/14 04:51:55;;;;;;;124.32;49.38;;;9.30;99.90;;;;;;5066845;28;20067;-74
2021/11/14 04:54:22;;;;;;;128.75;51.45;;;9.30;99.90;;;;;;5084563;28;20036;-74
2021/11/14 04:56:49;;;;;;;122.85;48.85;;;9.40;99.90;;;;;;5088891;28;20386;-75
2021/11/14 04:59:15;;;;;;;116.30;46.88;;;9.30;99.90;;;;;;5084271;28;20036;-75
2021/11/14 05:01:41;;;;;;;121.65;47.40;;;9.30;99.90;;;;;;5047599;28;20079;-75
2021/11/14 05:04:07;;;;;;;123.35;48.33;;;9.30;99.90;;;;;;5073606;28;20067;-74
2021/11/14 05:06:33;;;;;;;128.48;49.85;;;9.30;99.90;;;;;;5075175;28;20147;-74
2021/11/14 05:09:00;;;;;;;117.60;47.72;;;9.30;99.90;;;;;;5056166;28;20120;-75
2021/11/14 05:11:27;;;;;;;102.50;43.92;;;9.30;99.90;;;;;;5054163;28;20050;-74
2021/11/14 05:14:03;;;;;;;94.43;41.45;;;9.30;99.90;;;;;;5040133;28;20060;-75
2021/11/14 05:16:32;;;;;;;87.93;41.03;;;9.30;99.90;;;;;;5054136;28;20090;-74
2021/11/14 05:18:58;;;;;;;80.55;39.60;;;9.30;99.90;;;;;;5070685;28;20133;-74
2021/11/14 05:21:26;;;;;;;73.82;38.20;;;9.30;99.90;;;;;;5051264;28;20438;-74
2021/11/14 05:23:52;;;;;;;71.15;36.28;;;9.30;99.90;;;;;;5020602;28;20052;-70
2021/11/14 05:26:17;;;;;;;72.47;37.55;;;9.30;99.90;;;;;;5036928;28;20048;-71
2021/11/14 05:28:43;;;;;;;73.43;37.50;;;9.30;99.90;;;;;;5071149;28;20436;-76
2021/11/14 05:31:09;;;;;;;73.53;36.63;;;9.30;99.90;;;;;;5069979;28;20047;-73
2021/11/14 05:33:35;;;;;;;67.25;35.03;;;9.30;99.90;;;;;;5052907;28;20051;-74
2021/11/14 05:36:01;;;;;;;72.63;36.95;;;9.30;99.90;;;;;;5069932;28;20044;-74
2021/11/14 05:38:27;;;;;;;73.93;36.65;;;9.30;99.90;;;;;;5052700;28;20143;-75
2021/11/14 05:40:53;;;;;;;67.57;34.72;;;9.30;99.90;;;;;;5053072;28;20111;-74
2021/11/14 05:43:19;;;;;;;72.18;38.05;;;9.40;99.90;;;;;;5053264;28;20041;-75
2021/11/14 05:45:45;;;;;;;71.75;37.80;;;9.30;99.90;;;;;;5069267;28;20127;-75
2021/11/14 05:48:12;;;;;;;73.90;37.70;;;9.30;99.90;;;;;;5052778;28;20136;-74
2021/11/14 05:50:38;;;;;;;72.80;37.08;;;9.30;99.90;;;;;;5080177;28;20039;-75
2021/11/14 05:53:05;;;;;;;69.72;35.08;;;9.30;99.90;;;;;;5089531;28;20171;-74
2021/11/14 05:55:32;;;;;;;67.18;35.95;;;9.20;99.90;;;;;;5072705;28;20052;-74
2021/11/14 05:58:04;;;;;;;70.95;36.50;;;9.30;99.90;;;;;;5054898;28;20426;-75
2021/11/14 06:00:53;;;;;;;71.65;36.03;;;9.20;99.90;;;;;;5065924;28;20432;-75
2021/11/14 06:06:23;;;;;;;69.50;37.30;;;9.20;99.90;;;;;;5004959;28;20050;-74
2021/11/14 06:08:49;;;;;;;74.65;39.60;;;9.20;99.90;;;;;;5010995;28;20088;-75
2021/11/14 06:11:15;;;;;;;75.90;37.42;;;9.20;99.90;;;;;;5019666;28;20114;-74
2021/11/14 06:13:41;;;;;;;74.28;36.63;;;9.20;99.90;;;;;;5052031;28;20044;-71
2021/11/14 06:16:07;;;;;;;82.85;38.53;;;9.20;99.90;;;;;;5067491;28;20078;-71
2021/11/14 06:18:32;;;;;;;78.07;37.70;;;9.20;99.90;;;;;;5071445;28;20044;-71
2021/11/14 06:21:02;;;;;;;77.38;39.78;;;9.20;99.90;;;;;;5051213;28;20076;-71
2021/11/14 06:23:31;;;;;;;79.85;39.25;;;9.20;99.90;;;;;;5068280;28;20044;-72
2021/11/14 06:25:58;;;;;;;76.78;37.58;;;9.20;99.90;;;;;;5051637;28;20044;-72
2021/11/14 06:28:24;;;;;;;76.28;38.17;;;9.20;99.90;;;;;;5035069;28;20140;-72
2021/11/14 06:30:50;;;;;;;77.78;40.60;;;9.20;99.90;;;;;;5051825;28;20422;-72
2021/11/14 06:33:16;;;;;;;79.57;39.90;;;9.20;99.90;;;;;;5051804;28;20053;-72
2021/11/14 06:35:42;;;;;;;76.85;39.13;;;9.10;99.90;;;;;;5051668;28;20048;-74
2021/11/14 06:38:08;;;;;;;73.00;39.45;;;9.10;99.90;;;;;;5035162;28;20052;-75
2021/11/14 06:40:34;;;;;;;75.18;38.08;;;9.10;99.90;;;;;;5068463;28;20136;-74
2021/11/14 06:43:00;;;;;;;71.80;38.38;;;9.10;99.90;;;;;;5068935;28;20623;-75
2021/11/14 06:45:26;;;;;;;67.80;37.75;;;9.10;99.90;;;;;;5087060;28;20051;-75
2021/11/14 06:47:52;;;;;;;70.20;36.88;;;9.00;99.90;;;;;;5071375;28;20080;-75
2021/11/14 06:50:18;;;;;;;70.43;36.17;;;9.10;99.90;;;;;;5078734;28;20745;-75
2021/11/14 06:52:44;;;;;;;71.25;36.50;;;9.00;99.90;;;;;;5068061;28;20052;-75
2021/11/14 06:55:12;;;;;;;70.40;36.65;;;9.10;99.90;;;;;;5068769;28;20040;-74
2021/11/14 06:57:38;;;;;;;70.70;36.65;;;9.00;99.90;;;;;;5068072;28;20432;-75
2021/11/14 07:00:10;;;;;;;65.45;35.22;;;9.00;99.90;;;;;;5051949;28;20507;-75
2021/11/14 07:02:36;;;;;;;64.43;35.45;;;9.00;99.90;;;;;;5068363;28;20056;-74
2021/11/14 07:05:02;;;;;;;57.78;33.20;;;9.00;99.90;;;;;;5034793;28;20064;-75
2021/11/14 07:07:28;;;;;;;53.47;30.67;;;9.00;99.90;;;;;;5068159;28;20048;-75
2021/11/14 07:09:54;;;;;;;51.38;32.42;;;9.10;99.90;;;;;;5048906;28;20087;-75
2021/11/14 07:12:23;;;;;;;54.40;31.25;;;9.00;99.90;;;;;;5070811;28;20168;-75
2021/11/14 07:14:50;;;;;;;49.60;30.52;;;9.00;99.90;;;;;;5079188;28;20135;-75
2021/11/14 07:17:16;;;;;;;50.25;31.67;;;9.00;99.90;;;;;;5068042;28;20041;-75
2021/11/14 07:19:43;;;;;;;51.60;31.65;;;9.00;99.90;;;;;;5034519;28;20178;-75
2021/11/14 07:22:10;;;;;;;51.60;30.60;;;9.00;99.90;;;;;;5067072;28;20056;-75
2021/11/14 07:24:36;;;;;;;56.10;32.30;;;9.00;99.90;;;;;;5062479;28;20033;-75
2021/11/14 07:27:02;;;;;;;53.90;32.25;;;9.00;99.90;;;;;;5050778;28;20044;-75
2021/11/14 07:29:28;;;;;;;55.22;32.65;;;9.00;99.90;;;;;;5066640;28;20045;-75
2021/11/14 07:31:54;;;;;;;50.45;31.95;;;9.00;99.90;;;;;;5067034;28;20079;-76
2021/11/14 07:34:20;;;;;;;54.67;32.25;;;9.00;99.90;;;;;;5050588;28;20075;-75
2021/11/14 07:36:46;;;;;;;58.50;32.78;;;9.00;99.90;;;;;;5016949;28;20505;-75
2021/11/14 07:39:12;;;;;;;58.90;32.70;;;9.00;99.90;;;;;;5082629;28;20471;-75
2021/11/14 07:41:37;;;;;;;57.85;31.95;;;9.00;99.90;;;;;;5084364;28;20530;-75
2021/11/14 07:44:04;;;;;;;52.03;30.08;;;9.00;99.90;;;;;;5087014;28;20125;-76
2021/11/14 07:46:30;;;;;;;54.78;30.38;;;9.00;99.90;;;;;;5067913;28;20143;-75
2021/11/14 07:48:56;;;;;;;53.60;30.35;;;9.00;99.90;;;;;;5050374;28;20047;-75
2021/11/14 07:51:25;;;;;;;51.92;28.58;;;9.00;99.90;;;;;;5067015;28;20052;-74
2021/11/14 07:53:51;;;;;;;51.90;28.92;;;9.00;99.90;;;;;;5050696;28;20044;-76
2021/11/14 07:56:17;;;;;;;53.35;28.45;;;9.00;99.90;;;;;;5050493;28;20509;-75
2021/11/14 07:58:42;;;;;;;52.55;28.65;;;9.00;99.90;;;;;;5070207;28;20051;-75
2021/11/14 08:01:08;;;;;;;52.42;30.15;;;9.00;99.90;;;;;;5065745;28;20033;-76
2021/11/14 08:03:34;;;;;;;48.65;29.05;;;9.00;99.90;;;;;;5063363;28;20127;-75
2021/11/14 08:06:01;;;;;;;55.30;30.33;;;9.00;99.90;;;;;;5065162;28;20056;-75
2021/11/14 08:08:27;;;;;;;55.97;29.15;;;9.00;99.90;;;;;;5069095;28;20161;-75
2021/11/14 08:10:54;;;;;;;53.88;28.52;;;9.00;99.90;;;;;;5070565;28;20055;-75
2021/11/14 08:13:20;;;;;;;47.25;26.30;;;9.00;99.90;;;;;;5087446;28;20040;-75
2021/11/14 08:15:47;;;;;;;49.67;27.35;;;9.00;99.90;;;;;;5069218;28;20044;-74
2021/11/14 08:18:13;;;;;;;50.80;28.00;;;9.00;99.90;;;;;;5070048;28;20051;-75
2021/11/14 08:20:39;;;;;;;45.10;26.20;;;9.00;99.90;;;;;;5057863;28;20499;-75
2021/11/14 08:23:07;;;;;;;45.35;26.58;;;9.00;99.90;;;;;;5069970;28;20078;-74
2021/11/14 08:25:33;;;;;;;47.08;26.02;;;9.00;99.90;;;;;;5081896;28;20506;-75
2021/11/14 08:27:59;;;;;;;43.53;25.02;;;9.00;99.90;;;;;;5091018;28;20047;-75
2021/11/14 08:30:26;;;;;;;44.40;25.38;;;9.10;99.90;;;;;;5090700;28;20092;-75
2021/11/14 08:32:52;;;;;;;42.67;25.17;;;9.00;99.90;;;;;;5075070;28;20052;-75
2021/11/14 08:35:19;;;;;;;43.50;24.85;;;9.00;99.90;;;;;;5081158;28;20083;-75
2021/11/14 08:37:47;;;;;;;47.80;26.63;;;9.10;99.90;;;;;;5090865;28;20044;-75
2021/11/14 08:40:14;;;;;;;44.40;25.50;;;9.10;99.90;;;;;;5075037;28;20040;-76
2021/11/14 08:42:41;;;;;;;42.70;26.15;;;9.00;99.90;;;;;;5091257;28;20401;-75
2021/11/14 08:45:07;;;;;;;49.10;28.92;;;9.00;99.90;;;;;;5091196;28;20044;-75
2021/11/14 08:47:33;;;;;;;51.90;29.83;;;9.00;99.90;;;;;;5077419;28;20089;-75
2021/11/14 08:50:00;;;;;;;45.95;28.02;;;9.10;99.90;;;;;;5054045;28;20153;-75
2021/11/14 08:52:27;;;;;;;45.38;28.02;;;9.10;99.90;;;;;;5071285;28;20048;-75
2021/11/14 08:54:53;;;;;;;54.28;31.13;;;9.10;99.90;;;;;;5071097;28;20113;-75
2021/11/14 08:57:19;;;;;;;44.53;30.52;;;9.10;99.90;;;;;;5074798;28;20138;-75
2021/11/14 08:59:46;;;;;;;50.03;31.30;;;9.20;99.90;;;;;;5052261;28;20075;-75
2021/11/14 09:02:13;;;;;;;49.03;32.33;;;9.10;99.90;;;;;;5063517;28;20039;-75
2021/11/14 09:04:39;;;;;;;48.25;31.15;;;9.10;99.90;;;;;;5055369;28;20052;-75
2021/11/14 09:07:06;;;;;;;46.22;30.35;;;9.20;99.90;;;;;;5074964;28;20169;-75
2021/11/14 09:09:32;;;;;;;45.22;30.70;;;9.20;99.90;;;;;;5059346;28;20054;-75
2021/11/14 09:12:03;;;;;;;49.47;32.47;;;9.20;99.90;;;;;;5050092;28;20415;-75
2021/11/14 09:14:29;;;;;;;45.70;32.40;;;9.20;99.90;;;;;;5069102;28;20044;-75
2021/11/14 09:16:56;;;;;;;46.22;32.38;;;9.20;99.90;;;;;;5054100;28;20072;-75
2021/11/14 09:19:22;;;;;;;45.65;32.00;;;9.20;99.90;;;;;;5072390;28;20040;-75
2021/11/14 09:21:48;;;;;;;50.08;34.50;;;9.20;99.90;;;;;;5071081;28;20109;-75
2021/11/14 09:24:14;;;;;;;48.83;33.35;;;9.20;99.90;;;;;;5053261;28;20542;-75
2021/11/14 09:26:43;;;;;;;44.65;32.50;;;9.30;99.90;;;;;;5054908;28;20048;-72
2021/11/14 09:29:09;;;;;;;46.58;32.42;;;9.30;99.90;;;;;;5042777;28;20036;-75
2021/11/14 09:31:36;;;;;;;46.05;31.38;;;9.30;99.90;;;;;;5051044;28;20525;-75
2021/11/14 09:34:03;;;;;;;45.08;30.70;;;9.30;99.90;;;;;;5073108;28;20492;-75
2021/11/14 09:36:34;;;;;;;47.13;32.30;;;9.30;99.90;;;;;;5077956;28;20041;-75
2021/11/14 09:39:09;;;;;;;46.10;31.92;;;9.40;99.90;;;;;;5073926;28;20389;-76
2021/11/14 09:41:42;;;;;;;44.55;31.58;;;9.30;99.90;;;;;;5069917;28;20117;-76
2021/11/14 09:44:10;;;;;;;46.10;33.00;;;9.40;99.90;;;;;;5073496;28;20040;-72
2021/11/14 09:46:38;;;;;;;48.13;34.65;;;9.40;99.90;;;;;;5050244;28;20098;-72
2021/11/14 09:49:07;;;;;;;43.13;32.38;;;9.40;99.90;;;;;;5056417;28;20410;-72
2021/11/14 09:51:33;;;;;;;49.17;32.28;;;9.40;99.90;;;;;;5041014;28;20567;-71
2021/11/14 09:53:59;;;;;;;47.45;32.72;;;9.30;99.90;;;;;;5075473;28;20044;-72
2021/11/14 09:56:25;;;;;;;43.53;32.58;;;9.40;99.90;;;;;;5059148;28;20036;-72
2021/11/14 09:58:51;;;;;;;44.90;32.63;;;9.40;99.90;;;;;;5034352;28;20036;-72
2021/11/14 10:01:16;;;;;;;49.50;33.45;;;9.40;99.90;;;;;;5037827;28;20041;-73
2021/11/14 10:03:44;;;;;;;48.53;33.33;;;9.40;99.90;;;;;;5038848;28;20070;-75
2021/11/14 10:06:10;;;;;;;43.15;32.42;;;9.40;99.90;;;;;;5053517;28;20287;-75
2021/11/14 10:08:39;;;;;;;41.55;30.75;;;9.50;99.90;;;;;;5074972;28;20055;-75
2021/11/14 10:11:05;;;;;;;46.90;32.63;;;9.50;99.90;;;;;;5075601;28;20149;-75
2021/11/14 10:13:34;;;;;;;43.60;32.45;;;9.50;99.90;;;;;;5052836;28;20138;-75
2021/11/14 10:16:11;;;;;;;43.28;32.78;;;9.50;99.90;;;;;;5072868;28;20040;-75
2021/11/14 10:18:39;;;;;;;43.60;32.55;;;9.50;99.90;;;;;;5072547;28;20494;-71
2021/11/14 10:21:05;;;;;;;49.13;34.78;;;9.50;99.90;;;;;;5041498;28;20048;-72
2021/11/14 10:23:36;;;;;;;47.65;35.63;;;9.50;99.90;;;;;;5055066;28;20044;-72
2021/11/14 10:26:10;;;;;;;50.80;36.80;;;9.50;99.90;;;;;;5061140;28;20044;-72
2021/11/14 10:28:38;;;;;;;53.13;38.08;;;9.50;99.90;;;;;;5074926;28;20044;-72
2021/11/14 10:31:05;;;;;;;50.53;36.67;;;9.50;99.90;;;;;;5058263;28;20127;-71
2021/11/14 10:33:31;;;;;;;50.38;36.25;;;9.50;99.90;;;;;;5072415;28;20185;-71
2021/11/14 10:35:58;;;;;;;46.58;34.45;;;9.50;99.90;;;;;;5042655;28;20133;-71
2021/11/14 10:38:33;;;;;;;43.35;33.08;;;9.50;99.90;;;;;;5055361;28;20440;-71
2021/11/14 10:41:01;;;;;;;48.35;36.38;;;9.50;99.90;;;;;;5089131;28;20050;-70
2021/11/14 10:43:31;;;;;;;49.47;34.83;;;9.50;99.90;;;;;;5063428;28;20040;-70
2021/11/14 10:45:59;;;;;;;48.22;35.42;;;9.50;99.90;;;;;;5062684;28;20036;-71
2021/11/14 10:48:27;;;;;;;49.90;35.78;;;9.50;99.90;;;;;;5071762;28;20460;-71
2021/11/14 10:50:56;;;;;;;51.17;35.33;;;9.60;99.90;;;;;;5039909;28;20047;-72
2021/11/14 10:53:24;;;;;;;48.75;33.78;;;9.60;99.90;;;;;;5078714;28;20044;-71
2021/11/14 10:55:56;;;;;;;47.97;32.97;;;9.60;99.90;;;;;;5080106;28;20518;-74
2021/11/14 10:58:24;;;;;;;54.70;35.00;;;9.60;99.90;;;;;;5072629;28;20526;-74
2021/11/14 11:00:53;;;;;;;52.85;34.13;;;9.60;99.90;;;;;;5068601;28;20451;-74
2021/11/14 11:03:20;;;;;;;52.80;34.25;;;9.60;99.90;;;;;;5059052;28;20048;-71
2021/11/14 11:05:46;;;;;;;50.85;33.58;;;9.60;99.90;;;;;;5031576;28;20056;-74
2021/11/14 11:08:18;;;;;;;47.40;33.35;;;9.60;99.90;;;;;;5068076;28;20040;-75
2021/11/14 11:10:51;;;;;;;51.47;34.15;;;9.60;99.90;;;;;;5060791;28;20115;-75
2021/11/14 11:13:41;;;;;;;50.25;33.28;;;9.60;99.90;;;;;;5070818;28;20036;-74
2021/11/14 11:16:11;;;;;;;50.40;33.08;;;9.70;99.90;;;;;;5066592;28;20127;-74
2021/11/14 11:18:38;;;;;;;47.08;33.70;;;9.70;99.90;;;;;;5064377;28;20052;-75
2021/11/14 11:21:06;;;;;;;50.13;34.63;;;9.70;99.90;;;;;;5057239;28;20055;-75
2021/11/14 11:23:47;;;;;;;53.20;35.17;;;9.70;99.90;;;;;;5074425;28;20047;-75
2021/11/14 11:26:18;;;;;;;51.83;36.25;;;9.70;99.90;;;;;;5070967;28;20036;-75
2021/11/14 11:28:46;;;;;;;50.35;35.70;;;9.70;99.90;;;;;;5039449;28;20515;-74
2021/11/14 11:31:15;;;;;;;48.47;35.03;;;9.70;99.90;;;;;;5064221;28;20074;-74
2021/11/14 11:33:43;;;;;;;55.67;37.63;;;9.70;99.90;;;;;;5071032;28;20567;-72
2021/11/14 11:36:15;;;;;;;48.22;33.85;;;9.80;99.90;;;;;;5062274;28;20075;-71
2021/11/14 11:38:45;;;;;;;53.67;35.88;;;9.80;99.90;;;;;;5056154;28;20040;-71
2021/11/14 11:41:12;;;;;;;59.80;37.83;;;9.80;99.90;;;;;;5066300;28;20395;-72
2021/11/14 11:43:42;;;;;;;63.55;40.33;;;9.80;99.90;;;;;;5076735;28;20036;-71
2021/11/14 11:46:11;;;;;;;67.43;40.45;;;9.80;99.90;;;;;;5059048;28;20043;-71
2021/11/14 11:48:43;;;;;;;67.47;41.78;;;9.70;99.90;;;;;;5071978;28;20564;-72
2021/11/14 11:51:27;;;;;;;69.68;41.95;;;9.70;99.90;;;;;;5070008;28;20069;-72
2021/11/14 11:54:03;;;;;;;66.70;41.10;;;9.70;99.90;;;;;;5071285;28;20040;-72
2021/11/14 11:56:48;;;;;;;59.72;38.30;;;9.70;99.90;;;;;;5059185;28;20050;-72
2021/11/14 11:59:18;;;;;;;65.22;38.88;;;9.70;99.90;;;;;;5067044;28;20539;-71
2021/11/14 12:01:50;;;;;;;56.97;37.45;;;9.70;99.90;;;;;;5045408;28;20391;-71
2021/11/14 12:04:19;;;;;;;59.88;38.97;;;9.70;99.90;;;;;;5055709;28;20387;-70
2021/11/14 12:06:53;;;;;;;59.22;37.72;;;9.70;99.90;;;;;;5045221;28;20091;-71
2021/11/14 12:09:22;;;;;;;57.25;37.15;;;9.70;99.90;;;;;;5073300;28;20044;-70
2021/11/14 12:11:49;;;;;;;61.20;38.78;;;9.70;99.90;;;;;;5033101;28;20056;-71
2021/11/14 12:14:30;;;;;;;60.55;38.95;;;9.70;99.90;;;;;;5066979;28;20057;-71
2021/11/14 12:17:00;;;;;;;59.83;38.20;;;9.70;99.90;;;;;;5050877;28;20040;-71
2021/11/14 12:19:32;;;;;;;64.07;39.03;;;9.60;99.90;;;;;;5050223;28;20105;-71
2021/11/14 12:22:04;;;;;;;63.33;39.25;;;9.70;99.90;;;;;;5056430;28;20052;-71
2021/11/14 12:24:45;;;;;;;65.95;40.03;;;9.60;99.90;;;;;;5049902;28;20063;-72
2021/11/14 12:27:27;;;;;;;65.03;39.33;;;9.60;99.90;;;;;;5066892;28;20059;-70
2021/11/14 12:30:05;;;;;;;63.15;39.60;;;9.60;99.90;;;;;;5066843;28;20060;-70
2021/11/14 12:32:46;;;;;;;59.47;37.47;;;9.60;99.90;;;;;;5073572;28;20055;-72
2021/11/14 12:35:26;;;;;;;63.38;41.40;;;9.60;99.90;;;;;;5063486;28;20127;-70
2021/11/14 12:38:01;;;;;;;61.53;40.70;;;9.60;99.90;;;;;;5073457;28;20419;-71
2021/11/14 12:41:09;;;;;;;60.45;40.33;;;9.60;99.90;;;;;;5067335;28;20040;-71
2021/11/14 12:43:44;;;;;;;59.60;38.90;;;9.60;99.90;;;;;;5029322;28;20055;-71